createdAt,value
2018-08-17T00:01:54.220Z,20.43
2018-08-17T00:04:24.906Z,20.38
2018-08-17T00:06:55.777Z,20.35
2018-08-17T00:09:27.389Z,20.32
2018-08-17T00:11:58.360Z,20.28
2018-08-17T00:14:29.099Z,20.22
2018-08-17T00:16:58.957Z,20.18
2018-08-17T00:19:29.934Z,20.13
2018-08-17T00:22:00.753Z,20.12
2018-08-17T00:24:32.137Z,20.06
2018-08-17T00:27:03.048Z,20.04
2018-08-17T00:29:34.285Z,20.01
2018-08-17T00:32:04.363Z,19.98
2018-08-17T00:34:35.044Z,19.94
2018-08-17T00:37:05.896Z,19.90
2018-08-17T00:39:36.754Z,19.86
2018-08-17T00:42:08.268Z,19.78
2018-08-17T00:44:38.976Z,19.76
2018-08-17T00:47:10.176Z,19.75
2018-08-17T00:49:40.923Z,19.73
2018-08-17T00:52:11.829Z,19.71
2018-08-17T00:54:43.065Z,19.68
2018-08-17T00:57:14.071Z,19.65
2018-08-17T00:59:44.835Z,19.62
2018-08-17T01:02:15.757Z,19.60
2018-08-17T01:04:47.025Z,19.56
2018-08-17T01:07:18.010Z,19.48
2018-08-17T01:09:48.916Z,19.52
2018-08-17T01:12:19.906Z,19.49
2018-08-17T01:14:50.907Z,19.44
2018-08-17T01:17:22.008Z,19.41
2018-08-17T01:19:56.297Z,19.38
2018-08-17T01:22:26.165Z,19.34
2018-08-17T01:24:56.062Z,19.30
2018-08-17T01:27:25.913Z,19.28
2018-08-17T01:29:56.772Z,19.22
2018-08-17T01:32:28.554Z,19.18
2018-08-17T01:34:59.265Z,19.18
2018-08-17T01:37:29.941Z,19.12
2018-08-17T01:40:00.800Z,19.12
2018-08-17T01:42:31.685Z,19.12
2018-08-17T01:45:03.181Z,19.09
2018-08-17T01:47:35.025Z,19.06
2018-08-17T01:50:05.092Z,19.02
2018-08-17T01:52:35.886Z,19.00
2018-08-17T01:55:08.822Z,19.00
2018-08-17T01:57:38.660Z,18.96
2018-08-17T02:00:11.695Z,18.95
2018-08-17T02:02:42.675Z,18.93
2018-08-17T02:05:12.840Z,18.91
2018-08-17T02:07:42.633Z,18.89
2018-08-17T02:10:13.673Z,18.86
2018-08-17T02:12:44.024Z,18.84
2018-08-17T02:15:14.962Z,18.82
2018-08-17T02:17:45.781Z,18.79
2018-08-17T02:20:16.993Z,18.76
2018-08-17T02:22:52.124Z,18.74
2018-08-17T02:25:22.210Z,18.71
2018-08-17T02:27:52.068Z,18.68
2018-08-17T02:30:21.858Z,18.67
2018-08-17T02:32:51.780Z,18.63
2018-08-17T02:35:23.045Z,18.59
2018-08-17T02:37:54.037Z,18.58
2018-08-17T02:40:25.133Z,18.54
2018-08-17T02:42:56.139Z,18.52
2018-08-17T02:45:26.964Z,18.45
2018-08-17T02:47:57.892Z,18.46
2018-08-17T02:50:28.757Z,18.44
2018-08-17T02:52:59.755Z,18.41
2018-08-17T02:55:31.275Z,18.39
2018-08-17T02:58:02.064Z,18.34
2018-08-17T03:00:32.934Z,18.35
2018-08-17T03:03:04.036Z,18.33
2018-08-17T03:05:34.893Z,18.31
2018-08-17T03:08:05.886Z,18.30
2018-08-17T03:10:36.766Z,18.28
2018-08-17T03:13:08.506Z,18.26
2018-08-17T03:15:39.045Z,18.24
2018-08-17T03:18:10.939Z,18.23
2018-08-17T03:20:42.373Z,18.21
2018-08-17T03:23:12.751Z,18.17
2018-08-17T03:25:43.290Z,18.15
2018-08-17T03:28:14.037Z,18.13
2018-08-17T03:30:44.861Z,18.10
2018-08-17T03:33:15.872Z,18.06
2018-08-17T03:35:46.814Z,17.98
2018-08-17T03:38:17.781Z,17.89
2018-08-17T03:40:49.050Z,17.85
2018-08-17T03:43:19.897Z,17.78
2018-08-17T03:45:50.703Z,17.75
2018-08-17T03:48:22.160Z,17.82
2018-08-17T03:50:52.956Z,17.83
2018-08-17T03:53:23.865Z,17.85
2018-08-17T03:55:54.684Z,17.88
2018-08-17T03:58:26.160Z,17.88
2018-08-17T04:00:57.144Z,17.88
2018-08-17T04:03:27.992Z,17.83
2018-08-17T04:05:58.849Z,17.85
2018-08-17T04:08:29.844Z,17.79
2018-08-17T04:11:01.088Z,17.81
2018-08-17T04:13:32.038Z,17.81
2018-08-17T04:16:02.881Z,17.83
2018-08-17T04:18:34.159Z,17.81
2018-08-17T04:21:04.986Z,17.81
2018-08-17T04:23:35.995Z,17.82
2018-08-17T04:26:06.906Z,17.85
2018-08-17T04:28:37.820Z,17.85
2018-08-17T04:31:08.745Z,17.86
2018-08-17T04:33:40.141Z,17.87
2018-08-17T04:36:11.006Z,17.85
2018-08-17T04:38:41.917Z,17.90
2018-08-17T04:41:12.863Z,17.90
2018-08-17T04:43:43.847Z,17.92
2018-08-17T04:46:15.625Z,17.94
2018-08-17T04:48:46.251Z,17.94
2018-08-17T04:51:17.048Z,17.95
2018-08-17T04:53:47.960Z,17.99
2018-08-17T04:56:18.777Z,18.02
2018-08-17T04:58:49.769Z,18.05
2018-08-17T05:01:21.225Z,18.07
2018-08-17T05:03:52.198Z,18.03
2018-08-17T05:06:22.921Z,18.03
2018-08-17T05:08:53.839Z,18.03
2018-08-17T05:11:24.811Z,18.07
2018-08-17T05:13:56.088Z,18.09
2018-08-17T05:16:27.131Z,18.14
2018-08-17T05:18:57.945Z,18.22
2018-08-17T05:21:28.750Z,18.29
2018-08-17T05:24:00.109Z,18.38
2018-08-17T05:26:30.850Z,18.47
2018-08-17T05:29:01.821Z,18.52
2018-08-17T05:31:33.057Z,18.61
2018-08-17T05:34:04.103Z,18.67
2018-08-17T05:36:35.054Z,18.72
2018-08-17T05:39:06.998Z,18.81
2018-08-17T05:41:36.756Z,18.94
2018-08-17T05:44:08.181Z,18.96
2018-08-17T05:46:39.122Z,19.03
2018-08-17T05:49:10.165Z,19.13
2018-08-17T05:51:40.930Z,19.23
2018-08-17T05:54:11.824Z,19.30
2018-08-17T05:56:43.119Z,19.40
2018-08-17T05:59:14.012Z,19.52
2018-08-17T06:01:51.396Z,19.59
2018-08-17T06:04:21.961Z,19.68
2018-08-17T06:06:51.736Z,19.80
2018-08-17T06:09:21.541Z,19.89
2018-08-17T06:11:51.526Z,20.01
2018-08-17T06:14:21.389Z,20.09
2018-08-17T06:16:51.406Z,20.23
2018-08-17T06:19:22.632Z,20.36
2018-08-17T06:21:53.217Z,20.44
2018-08-17T06:24:24.010Z,20.49
2018-08-17T06:26:54.925Z,20.60
2018-08-17T06:29:25.849Z,20.78
2018-08-17T06:31:57.454Z,20.85
2018-08-17T06:34:27.999Z,20.94
2018-08-17T06:36:59.041Z,20.98
2018-08-17T06:39:29.863Z,21.11
2018-08-17T06:42:01.181Z,21.24
2018-08-17T06:44:31.974Z,21.29
2018-08-17T06:47:02.918Z,21.45
2018-08-17T06:49:34.053Z,21.58
2018-08-17T06:52:05.364Z,21.67
2018-08-17T06:54:35.897Z,21.84
2018-08-17T06:57:07.026Z,21.93
2018-08-17T06:59:37.827Z,22.01
2018-08-17T07:02:08.992Z,22.15
2018-08-17T07:04:39.921Z,22.24
2018-08-17T07:07:10.810Z,22.32
2018-08-17T07:09:42.046Z,22.45
2018-08-17T07:12:13.093Z,22.54
2018-08-17T07:14:43.848Z,22.67
2018-08-17T07:17:14.938Z,22.78
2018-08-17T07:19:45.713Z,22.89
2018-08-17T07:22:17.209Z,22.96
2018-08-17T07:24:48.000Z,23.06
2018-08-17T07:27:19.034Z,23.08
2018-08-17T07:29:49.938Z,23.22
2018-08-17T07:32:20.875Z,23.32
2018-08-17T07:34:51.832Z,23.43
2018-08-17T07:37:21.769Z,23.50
2018-08-17T07:39:53.029Z,23.63
2018-08-17T07:42:24.235Z,23.78
2018-08-17T07:44:55.111Z,23.89
2018-08-17T07:47:26.075Z,23.93
2018-08-17T07:49:57.009Z,24.05
2018-08-17T07:52:27.987Z,24.20
2018-08-17T07:54:58.873Z,24.45
2018-08-17T07:57:29.826Z,24.56
2018-08-17T08:00:01.066Z,24.66
2018-08-17T08:02:32.153Z,24.67
2018-08-17T08:05:03.081Z,24.81
2018-08-17T08:07:34.022Z,24.92
2018-08-17T08:10:05.040Z,25.01
2018-08-17T08:12:36.050Z,25.19
2018-08-17T08:15:07.539Z,25.29
2018-08-17T08:17:40.796Z,25.22
2018-08-17T08:20:21.224Z,25.33
2018-08-17T08:23:28.872Z,25.46
2018-08-17T08:25:59.453Z,25.55
2018-08-17T08:28:29.797Z,25.71
2018-08-17T08:30:59.761Z,25.80
2018-08-17T08:33:29.528Z,25.98
2018-08-17T08:35:59.466Z,26.07
2018-08-17T08:38:29.453Z,26.16
2018-08-17T08:40:59.238Z,26.22
2018-08-17T08:43:29.017Z,26.17
2018-08-17T08:45:59.109Z,26.22
2018-08-17T08:48:29.151Z,26.47
2018-08-17T08:50:59.194Z,26.53
2018-08-17T08:53:28.991Z,26.64
2018-08-17T08:55:59.213Z,26.85
2018-08-17T08:58:30.086Z,27.05
2018-08-17T09:01:01.101Z,27.13
2018-08-17T09:03:30.966Z,27.17
2018-08-17T09:06:00.978Z,27.22
2018-08-17T09:08:31.041Z,27.33
2018-08-17T09:11:01.036Z,27.29
2018-08-17T09:13:31.007Z,27.29
2018-08-17T09:16:01.044Z,27.47
2018-08-17T09:18:31.248Z,27.64
2018-08-17T09:21:01.264Z,27.85
2018-08-17T09:23:31.124Z,28.08
2018-08-17T09:26:01.076Z,28.28
2018-08-17T09:28:31.122Z,28.30
2018-08-17T09:31:01.068Z,28.30
2018-08-17T09:33:31.354Z,28.36
2018-08-17T09:36:01.196Z,28.30
2018-08-17T09:38:31.479Z,28.30
2018-08-17T09:41:01.300Z,28.28
2018-08-17T09:43:31.081Z,28.38
2018-08-17T09:46:01.024Z,28.40
2018-08-17T09:48:31.103Z,28.61
2018-08-17T09:51:01.622Z,28.83
2018-08-17T09:53:31.452Z,28.83
2018-08-17T09:56:01.837Z,28.86
2018-08-17T09:58:31.989Z,29.06
2018-08-17T10:01:07.000Z,29.21
2018-08-17T10:03:42.231Z,29.49
2018-08-17T10:06:17.281Z,29.40
2018-08-17T10:08:52.076Z,29.65
2018-08-17T10:11:22.021Z,29.77
2018-08-17T10:13:52.005Z,29.86
2018-08-17T10:16:22.229Z,30.05
2018-08-17T10:18:52.517Z,30.29
2018-08-17T10:21:22.456Z,30.51
2018-08-17T10:23:52.325Z,30.58
2018-08-17T10:26:22.282Z,30.45
2018-08-17T10:28:52.105Z,30.47
2018-08-17T10:31:22.385Z,30.58
2018-08-17T10:33:52.634Z,30.93
2018-08-17T10:36:22.479Z,31.05
2018-08-17T10:38:52.317Z,30.80
2018-08-17T10:41:22.364Z,30.60
2018-08-17T10:43:52.811Z,30.42
2018-08-17T10:46:22.912Z,30.50
2018-08-17T10:48:53.384Z,30.64
2018-08-17T10:51:23.805Z,30.88
2018-08-17T10:53:53.813Z,30.92
2018-08-17T10:56:23.966Z,31.14
2018-08-17T10:58:53.845Z,31.42
2018-08-17T11:01:23.798Z,31.67
2018-08-17T11:03:53.777Z,31.66
2018-08-17T11:06:23.696Z,31.93
2018-08-17T11:08:53.559Z,32.16
2018-08-17T11:11:23.326Z,32.56
2018-08-17T11:13:54.197Z,32.75
2018-08-17T11:16:24.117Z,32.77
2018-08-17T11:18:54.593Z,32.94
2018-08-17T11:21:24.927Z,33.08
2018-08-17T11:24:02.870Z,33.16
2018-08-17T11:26:39.192Z,33.40
2018-08-17T11:29:09.466Z,33.59
2018-08-17T11:31:39.650Z,33.38
2018-08-17T11:34:10.249Z,33.20
2018-08-17T11:36:40.036Z,33.05
2018-08-17T11:39:10.362Z,32.91
2018-08-17T11:41:40.641Z,32.72
2018-08-17T11:44:14.360Z,32.37
2018-08-17T11:46:44.647Z,31.87
2018-08-17T11:49:14.746Z,32.18
2018-08-17T11:51:45.021Z,32.42
2018-08-17T11:54:14.925Z,32.48
2018-08-17T11:56:45.447Z,32.67
2018-08-17T11:59:15.467Z,32.81
2018-08-17T12:01:45.485Z,33.14
2018-08-17T12:04:15.455Z,33.21
2018-08-17T12:06:45.529Z,33.24
2018-08-17T12:09:15.389Z,33.34
2018-08-17T12:11:45.323Z,33.51
2018-08-17T12:14:15.323Z,33.67
2018-08-17T12:16:45.981Z,33.79
2018-08-17T12:19:16.371Z,33.98
2018-08-17T12:21:46.290Z,34.22
2018-08-17T12:24:16.355Z,34.26
2018-08-17T12:26:51.450Z,34.40
2018-08-17T12:29:21.404Z,34.34
2018-08-17T12:31:51.370Z,34.44
2018-08-17T12:34:21.320Z,34.42
2018-08-17T12:36:51.275Z,34.67
2018-08-17T12:39:21.902Z,34.78
2018-08-17T12:41:51.739Z,34.90
2018-08-17T12:44:22.158Z,35.01
2018-08-17T12:46:52.991Z,35.00
2018-08-17T12:49:23.781Z,34.91
2018-08-17T12:51:54.893Z,35.11
2018-08-17T12:54:30.493Z,35.23
2018-08-17T12:57:02.149Z,35.16
2018-08-17T12:59:32.522Z,35.00
2018-08-17T13:02:02.922Z,35.13
2018-08-17T13:04:32.943Z,35.34
2018-08-17T13:07:02.781Z,35.49
2018-08-17T13:09:32.613Z,35.26
2018-08-17T13:12:03.047Z,35.46
2018-08-17T13:14:33.031Z,35.36
2018-08-17T13:17:03.828Z,35.39
2018-08-17T13:19:34.934Z,35.52
2018-08-17T13:22:05.902Z,35.58
2018-08-17T13:24:37.053Z,35.78
2018-08-17T13:27:07.859Z,35.79
2018-08-17T13:29:38.998Z,35.70
2018-08-17T13:32:09.677Z,35.85
2018-08-17T13:34:39.719Z,35.78
2018-08-17T13:37:10.745Z,35.79
2018-08-17T13:39:42.420Z,35.69
2018-08-17T13:42:13.251Z,35.81
2018-08-17T13:44:44.147Z,36.08
2018-08-17T13:47:14.988Z,36.24
2018-08-17T13:49:46.085Z,36.10
2018-08-17T13:52:16.968Z,36.02
2018-08-17T13:54:48.399Z,36.03
2018-08-17T13:57:18.952Z,36.14
2018-08-17T13:59:50.161Z,35.64
2018-08-17T14:02:21.426Z,35.61
2018-08-17T14:04:52.198Z,35.35
2018-08-17T14:07:23.113Z,35.75
2018-08-17T14:09:54.288Z,36.14
2018-08-17T14:12:25.123Z,36.39
2018-08-17T14:14:56.150Z,36.56
2018-08-17T14:17:27.143Z,36.66
2018-08-17T14:19:58.078Z,36.61
2018-08-17T14:22:28.880Z,36.77
2018-08-17T14:24:59.896Z,36.83
2018-08-17T14:27:30.783Z,36.70
2018-08-17T14:30:01.877Z,36.84
2018-08-17T14:32:32.846Z,36.94
2018-08-17T14:35:03.848Z,37.03
2018-08-17T14:37:34.875Z,36.93
2018-08-17T14:40:06.522Z,36.42
2018-08-17T14:42:37.160Z,36.58
2018-08-17T14:45:09.210Z,36.41
2018-08-17T14:47:39.878Z,36.36
2018-08-17T14:50:13.585Z,36.58
2018-08-17T14:52:44.110Z,36.00
2018-08-17T14:55:14.076Z,36.24
2018-08-17T14:57:43.982Z,36.49
2018-08-17T15:00:15.279Z,36.60
2018-08-17T15:02:45.377Z,36.66
2018-08-17T15:05:16.689Z,36.72
2018-08-17T15:07:46.753Z,36.67
2018-08-17T15:10:17.686Z,36.65
2018-08-17T15:12:49.261Z,36.67
2018-08-17T15:15:21.762Z,36.73
2018-08-17T15:17:51.614Z,36.58
2018-08-17T15:20:21.976Z,36.65
2018-08-17T15:22:52.769Z,36.65
2018-08-17T15:25:24.137Z,36.66
2018-08-17T15:27:54.977Z,36.70
2018-08-17T15:30:25.689Z,36.51
2018-08-17T15:32:57.206Z,36.14
2018-08-17T15:35:27.947Z,36.14
2018-08-17T15:37:58.765Z,36.17
2018-08-17T15:40:29.932Z,36.29
2018-08-17T15:43:04.706Z,36.36
2018-08-17T15:45:34.417Z,36.15
2018-08-17T15:48:04.709Z,36.10
2018-08-17T15:50:34.545Z,35.84
2018-08-17T15:53:05.082Z,35.83
2018-08-17T15:55:35.926Z,35.92
2018-08-17T15:58:07.423Z,35.92
2018-08-17T16:00:38.561Z,35.98
2018-08-17T16:03:09.175Z,35.98
2018-08-17T16:05:40.435Z,36.01
2018-08-17T16:08:10.896Z,35.99
2018-08-17T16:10:41.882Z,35.75
2018-08-17T16:13:12.850Z,35.65
2018-08-17T16:15:43.796Z,35.59
2018-08-17T16:18:14.882Z,35.61
2018-08-17T16:20:45.835Z,35.63
2018-08-17T16:23:16.633Z,35.63
2018-08-17T16:25:48.321Z,35.64
2018-08-17T16:28:18.906Z,35.65
2018-08-17T16:30:49.834Z,35.60
2018-08-17T16:33:20.790Z,35.21
2018-08-17T16:35:51.961Z,35.24
2018-08-17T16:38:22.749Z,35.25
2018-08-17T16:40:54.409Z,34.93
2018-08-17T16:43:30.999Z,34.95
2018-08-17T16:46:01.427Z,34.87
2018-08-17T16:48:31.314Z,34.83
2018-08-17T16:51:01.663Z,34.81
2018-08-17T16:53:31.507Z,34.82
2018-08-17T16:56:05.548Z,34.74
2018-08-17T16:58:35.848Z,34.58
2018-08-17T17:01:05.738Z,34.36
2018-08-17T17:03:35.629Z,34.16
2018-08-17T17:06:06.271Z,34.02
2018-08-17T17:08:36.752Z,33.94
2018-08-17T17:11:06.718Z,33.99
2018-08-17T17:13:41.855Z,33.86
2018-08-17T17:16:12.040Z,33.79
2018-08-17T17:18:41.883Z,33.68
2018-08-17T17:21:11.749Z,33.60
2018-08-17T17:23:52.385Z,33.54
2018-08-17T17:26:22.612Z,33.45
2018-08-17T17:28:52.454Z,33.33
2018-08-17T17:31:22.267Z,33.19
2018-08-17T17:33:52.919Z,33.05
2018-08-17T17:36:22.678Z,32.89
2018-08-17T17:38:52.477Z,32.75
2018-08-17T17:41:22.790Z,32.62
2018-08-17T17:43:52.573Z,32.49
2018-08-17T17:46:22.928Z,32.38
2018-08-17T17:48:52.766Z,32.26
2018-08-17T17:51:22.660Z,32.18
2018-08-17T17:53:52.882Z,32.09
2018-08-17T17:56:24.015Z,31.98
2018-08-17T17:59:03.120Z,31.83
2018-08-17T18:01:33.217Z,31.70
2018-08-17T18:04:03.503Z,31.56
2018-08-17T18:06:33.626Z,31.40
2018-08-17T18:09:03.768Z,31.26
2018-08-17T18:11:33.656Z,31.13
2018-08-17T18:14:03.524Z,31.00
2018-08-17T18:16:33.950Z,30.91
2018-08-17T18:19:04.013Z,30.77
2018-08-17T18:21:34.685Z,30.65
2018-08-17T18:24:09.374Z,30.48
2018-08-17T18:26:41.929Z,30.33
2018-08-17T18:29:11.835Z,30.21
2018-08-17T18:31:41.803Z,30.09
2018-08-17T18:34:11.933Z,29.95
2018-08-17T18:36:42.065Z,29.83
2018-08-17T18:39:14.111Z,29.74
2018-08-17T18:41:44.404Z,29.62
2018-08-17T18:44:14.688Z,29.50
2018-08-17T18:46:44.677Z,29.37
2018-08-17T18:49:14.694Z,29.28
2018-08-17T18:51:44.836Z,29.18
2018-08-17T18:54:15.920Z,29.07
2018-08-17T18:56:46.847Z,28.99
2018-08-17T18:59:17.783Z,28.91
2018-08-17T19:01:49.310Z,28.83
2018-08-17T19:04:20.273Z,28.72
2018-08-17T19:06:51.156Z,28.61
2018-08-17T19:09:21.985Z,28.51
2018-08-17T19:11:52.880Z,28.43
2018-08-17T19:14:23.886Z,28.37
2018-08-17T19:16:55.142Z,28.31
2018-08-17T19:19:25.997Z,28.25
2018-08-17T19:21:57.608Z,28.15
2018-08-17T19:24:28.367Z,28.12
2018-08-17T19:26:59.115Z,28.09
2018-08-17T19:29:30.455Z,28.09
2018-08-17T19:32:03.068Z,28.07
2018-08-17T19:34:33.204Z,28.05
2018-08-17T19:37:03.220Z,28.02
2018-08-17T19:39:35.086Z,27.98
2018-08-17T19:42:05.468Z,27.92
2018-08-17T19:44:35.529Z,27.88
2018-08-17T19:47:06.332Z,27.82
2018-08-17T19:49:37.413Z,27.76
2018-08-17T19:52:08.791Z,27.69
2018-08-17T19:54:39.728Z,27.61
2018-08-17T19:57:09.616Z,27.57
2018-08-17T19:59:41.301Z,27.51
2018-08-17T20:02:12.025Z,27.50
2018-08-17T20:04:42.875Z,27.43
2018-08-17T20:07:13.944Z,27.42
2018-08-17T20:09:45.062Z,27.39
2018-08-17T20:12:16.284Z,27.34
2018-08-17T20:14:47.186Z,27.28
2018-08-17T20:17:18.054Z,27.24
2018-08-17T20:19:50.041Z,27.18
2018-08-17T20:22:22.872Z,27.12
2018-08-17T20:24:53.048Z,27.04
2018-08-17T20:27:23.368Z,26.98
2018-08-17T20:29:53.262Z,26.91
2018-08-17T20:32:24.042Z,26.86
2018-08-17T20:34:55.135Z,26.80
2018-08-17T20:37:25.982Z,26.73
2018-08-17T20:39:57.019Z,26.67
2018-08-17T20:42:28.403Z,26.62
2018-08-17T20:44:59.033Z,26.55
2018-08-17T20:47:30.042Z,26.46
2018-08-17T20:50:00.978Z,26.45
2018-08-17T20:52:31.839Z,26.41
2018-08-17T20:55:03.707Z,26.35
2018-08-17T20:57:33.950Z,26.29
2018-08-17T21:00:05.494Z,26.25
2018-08-17T21:02:36.069Z,26.21
2018-08-17T21:05:07.539Z,26.16
2018-08-17T21:07:38.100Z,26.13
2018-08-17T21:10:09.437Z,26.07
2018-08-17T21:12:40.256Z,26.01
2018-08-17T21:15:10.988Z,25.96
2018-08-17T21:17:41.916Z,25.90
2018-08-17T21:20:13.036Z,25.84
2018-08-17T21:22:43.955Z,25.78
2018-08-17T21:25:14.931Z,25.72
2018-08-17T21:27:45.982Z,25.66
2018-08-17T21:30:17.128Z,25.63
2018-08-17T21:32:48.080Z,25.60
2018-08-17T21:35:19.174Z,25.56
2018-08-17T21:37:50.604Z,25.49
2018-08-17T21:40:30.391Z,25.46
2018-08-17T21:43:02.487Z,25.42
2018-08-17T21:45:33.238Z,25.39
2018-08-17T21:48:03.597Z,25.33
2018-08-17T21:50:33.605Z,25.29
2018-08-17T21:53:03.513Z,25.27
2018-08-17T21:55:33.621Z,25.23
2018-08-17T21:58:04.108Z,25.16
2018-08-17T22:00:34.652Z,25.11
2018-08-17T22:03:11.319Z,25.04
2018-08-17T22:05:41.882Z,24.99
2018-08-17T22:08:11.946Z,24.95
2018-08-17T22:10:41.796Z,24.89
2018-08-17T22:13:21.697Z,24.90
2018-08-17T22:15:52.204Z,24.86
2018-08-17T22:18:22.240Z,24.80
2018-08-17T22:20:53.276Z,24.76
2018-08-17T22:23:23.514Z,24.73
2018-08-17T22:25:53.858Z,24.54
2018-08-17T22:28:23.777Z,24.29
2018-08-17T22:30:53.996Z,24.05
2018-08-17T22:33:24.329Z,23.86
2018-08-17T22:35:54.545Z,23.71
2018-08-17T22:38:27.735Z,23.58
2018-08-17T22:40:58.096Z,23.44
2018-08-17T22:43:42.374Z,23.34
2018-08-17T22:46:12.189Z,23.20
2018-08-17T22:48:42.025Z,23.12
2018-08-17T22:51:12.119Z,23.04
2018-08-17T22:53:41.999Z,22.98
2018-08-17T22:56:12.097Z,22.86
2018-08-17T22:58:51.457Z,22.78
2018-08-17T23:01:21.761Z,22.74
2018-08-17T23:03:55.488Z,22.66
2018-08-17T23:06:26.868Z,22.59
2018-08-17T23:09:00.039Z,22.55
2018-08-17T23:11:36.519Z,22.49
2018-08-17T23:14:21.333Z,22.43
2018-08-17T23:16:51.496Z,22.35
2018-08-17T23:19:21.309Z,22.34
2018-08-17T23:21:51.113Z,22.29
2018-08-17T23:24:21.118Z,22.21
2018-08-17T23:26:51.072Z,22.16
2018-08-17T23:29:21.303Z,22.13
2018-08-17T23:31:51.112Z,22.08
2018-08-17T23:34:21.069Z,21.98
2018-08-17T23:36:51.198Z,21.95
2018-08-17T23:39:21.507Z,21.92
2018-08-17T23:41:51.496Z,21.88
2018-08-17T23:44:21.306Z,21.81
2018-08-17T23:46:51.255Z,21.78
2018-08-17T23:49:21.267Z,21.40
2018-08-17T23:51:51.091Z,21.33
2018-08-17T23:54:21.081Z,21.34
2018-08-17T23:56:51.481Z,21.33
2018-08-17T23:59:21.320Z,21.34
